createdAt,value
2019-02-19T00:00:50.899Z,1.30
2019-02-19T00:01:50.879Z,1.30
2019-02-19T00:02:50.877Z,1.50
2019-02-19T00:03:50.848Z,1.50
2019-02-19T00:04:50.848Z,1.40
2019-02-19T00:05:51.297Z,1.40
2019-02-19T00:06:50.821Z,1.60
2019-02-19T00:07:50.828Z,1.50
2019-02-19T00:08:50.795Z,1.50
2019-02-19T00:09:50.782Z,1.60
2019-02-19T00:10:50.795Z,1.60
2019-02-19T00:11:50.771Z,1.40
2019-02-19T00:12:50.763Z,1.50
2019-02-19T00:13:50.765Z,1.30
2019-02-19T00:14:50.729Z,1.40
2019-02-19T00:15:50.792Z,1.20
2019-02-19T00:16:51.279Z,1.30
2019-02-19T00:17:50.701Z,1.50
2019-02-19T00:18:50.686Z,1.60
2019-02-19T00:19:50.684Z,1.60
2019-02-19T00:20:50.666Z,1.50
2019-02-19T00:21:50.660Z,1.20
2019-02-19T00:22:50.645Z,1.60
2019-02-19T00:23:51.279Z,1.40
2019-02-19T00:24:50.621Z,1.40
2019-02-19T00:25:50.609Z,1.70
2019-02-19T00:26:50.611Z,1.40
2019-02-19T00:27:51.290Z,1.60
2019-02-19T00:28:50.574Z,1.40
2019-02-19T00:29:50.582Z,1.40
2019-02-19T00:30:50.552Z,1.70
2019-02-19T00:31:50.558Z,1.50
2019-02-19T00:32:51.280Z,1.50
2019-02-19T00:33:51.288Z,1.10
2019-02-19T00:34:50.506Z,1.20
2019-02-19T00:35:50.499Z,1.60
2019-02-19T00:36:50.798Z,1.50
2019-02-19T00:37:50.476Z,1.30
2019-02-19T00:38:51.279Z,1.30
2019-02-19T00:39:50.455Z,1.60
2019-02-19T00:40:50.447Z,1.40
2019-02-19T00:41:50.792Z,1.60
2019-02-19T00:42:50.424Z,1.40
2019-02-19T00:43:50.411Z,1.40
2019-02-19T00:44:51.285Z,1.50
2019-02-19T00:45:51.282Z,1.60
2019-02-19T00:46:50.849Z,1.20
2019-02-19T00:47:50.371Z,1.30
2019-02-19T00:48:50.356Z,1.50
2019-02-19T00:49:51.283Z,1.40
2019-02-19T00:50:50.339Z,1.20
2019-02-19T00:51:50.349Z,1.60
2019-02-19T00:52:50.315Z,1.50
2019-02-19T00:53:50.300Z,1.80
2019-02-19T00:54:50.290Z,1.30
2019-02-19T00:55:50.276Z,1.40
2019-02-19T00:56:50.306Z,1.10
2019-02-19T00:57:50.269Z,1.60
2019-02-19T00:58:50.245Z,1.60
2019-02-19T00:59:50.233Z,1.40
2019-02-19T01:00:50.222Z,1.30
2019-02-19T01:01:50.292Z,1.40
2019-02-19T01:02:50.213Z,1.40
2019-02-19T01:03:50.204Z,1.50
2019-02-19T01:04:50.783Z,1.80
2019-02-19T01:05:50.178Z,1.40
2019-02-19T01:06:50.797Z,1.40
2019-02-19T01:07:50.174Z,1.50
2019-02-19T01:08:50.133Z,1.50
2019-02-19T01:09:50.791Z,1.50
2019-02-19T01:10:50.787Z,1.50
2019-02-19T01:11:50.127Z,1.60
2019-02-19T01:12:50.126Z,1.80
2019-02-19T01:13:50.095Z,1.40
2019-02-19T01:14:50.069Z,1.70
2019-02-19T01:15:50.059Z,1.30
2019-02-19T01:16:50.047Z,1.60
2019-02-19T01:17:50.057Z,1.60
2019-02-19T01:18:50.044Z,1.50
2019-02-19T01:19:50.011Z,1.20
2019-02-19T01:20:50.004Z,1.50
2019-02-19T01:21:49.991Z,1.40
2019-02-19T01:22:50.007Z,1.90
2019-02-19T01:23:50.787Z,1.60
2019-02-19T01:24:49.966Z,1.50
2019-02-19T01:25:49.946Z,1.40
2019-02-19T01:26:49.938Z,1.50
2019-02-19T01:27:49.959Z,1.60
2019-02-19T01:28:49.920Z,1.40
2019-02-19T01:29:49.907Z,1.60
2019-02-19T01:30:49.894Z,1.60
2019-02-19T01:31:49.901Z,1.70
2019-02-19T01:32:49.903Z,1.40
2019-02-19T01:33:49.860Z,1.30
2019-02-19T01:34:49.850Z,1.60
2019-02-19T01:35:49.845Z,1.70
2019-02-19T01:36:49.827Z,1.30
2019-02-19T01:37:49.851Z,1.60
2019-02-19T01:38:49.804Z,1.70
2019-02-19T01:39:49.794Z,1.50
2019-02-19T01:40:50.286Z,1.50
2019-02-19T01:41:49.778Z,1.70
2019-02-19T01:42:49.792Z,1.40
2019-02-19T01:43:49.751Z,1.50
2019-02-19T01:44:50.287Z,1.50
2019-02-19T01:45:49.731Z,1.90
2019-02-19T01:46:49.717Z,1.60
2019-02-19T01:47:49.764Z,1.00
2019-02-19T01:48:49.710Z,1.20
2019-02-19T01:49:50.283Z,1.30
2019-02-19T01:50:49.675Z,1.40
2019-02-19T01:51:49.664Z,1.50
2019-02-19T01:52:49.653Z,1.60
2019-02-19T01:53:49.667Z,1.30
2019-02-19T01:54:49.639Z,1.60
2019-02-19T01:55:49.620Z,1.30
2019-02-19T01:56:49.606Z,1.60
2019-02-19T01:57:49.600Z,1.10
2019-02-19T01:58:49.613Z,1.40
2019-02-19T01:59:49.576Z,1.70
2019-02-19T02:00:49.566Z,1.40
2019-02-19T02:01:49.566Z,1.70
2019-02-19T02:02:50.286Z,1.50
2019-02-19T02:03:49.563Z,1.40
2019-02-19T02:04:49.521Z,1.20
2019-02-19T02:05:49.513Z,1.30
2019-02-19T02:06:49.499Z,1.20
2019-02-19T02:07:49.487Z,1.30
2019-02-19T02:08:49.803Z,1.30
2019-02-19T02:09:50.285Z,1.60
2019-02-19T02:10:49.456Z,1.50
2019-02-19T02:11:50.291Z,1.30
2019-02-19T02:12:49.432Z,1.50
2019-02-19T02:13:49.449Z,1.70
2019-02-19T02:14:49.415Z,1.20
2019-02-19T02:15:49.402Z,1.50
2019-02-19T02:16:49.387Z,1.60
2019-02-19T02:17:49.381Z,1.40
2019-02-19T02:18:49.390Z,1.40
2019-02-19T02:19:49.421Z,1.30
2019-02-19T02:20:49.345Z,1.40
2019-02-19T02:21:49.336Z,1.30
2019-02-19T02:22:49.324Z,1.40
2019-02-19T02:23:49.341Z,1.50
2019-02-19T02:24:49.304Z,1.20
2019-02-19T02:25:49.290Z,1.40
2019-02-19T02:26:49.283Z,1.70
2019-02-19T02:27:49.270Z,1.60
2019-02-19T02:28:49.280Z,1.10
2019-02-19T02:29:49.248Z,1.60
2019-02-19T02:30:49.239Z,1.40
2019-02-19T02:31:49.231Z,1.60
2019-02-19T02:32:49.228Z,1.40
2019-02-19T02:33:49.310Z,1.30
2019-02-19T02:34:49.194Z,1.00
2019-02-19T02:35:49.183Z,1.40
2019-02-19T02:36:49.790Z,1.60
2019-02-19T02:37:49.160Z,1.30
2019-02-19T02:38:49.166Z,1.50
2019-02-19T02:39:49.152Z,1.40
2019-02-19T02:40:49.129Z,1.60
2019-02-19T02:41:49.789Z,1.50
2019-02-19T02:42:49.105Z,1.70
2019-02-19T02:43:49.804Z,1.50
2019-02-19T02:44:49.305Z,1.40
2019-02-19T02:45:53.308Z,1.50
2019-02-19T02:46:49.066Z,1.00
2019-02-19T02:47:49.052Z,1.40
2019-02-19T02:48:49.802Z,1.40
2019-02-19T02:49:49.307Z,1.20
2019-02-19T02:50:49.020Z,1.50
2019-02-19T02:51:49.007Z,1.50
2019-02-19T02:52:49.003Z,1.20
2019-02-19T02:53:48.987Z,1.60
2019-02-19T02:54:49.323Z,1.60
2019-02-19T02:55:49.023Z,1.30
2019-02-19T02:56:48.952Z,1.40
2019-02-19T02:57:48.952Z,1.10
2019-02-19T02:58:48.933Z,1.40
2019-02-19T02:59:48.937Z,1.10
2019-02-19T03:00:48.913Z,1.40
2019-02-19T03:01:48.900Z,1.40
2019-02-19T03:02:48.894Z,1.40
2019-02-19T03:03:48.882Z,1.70
2019-02-19T03:04:49.341Z,1.40
2019-02-19T03:05:48.859Z,1.20
2019-02-19T03:06:48.843Z,1.50
2019-02-19T03:07:48.834Z,1.40
2019-02-19T03:08:48.837Z,1.50
2019-02-19T03:09:49.309Z,1.30
2019-02-19T03:10:48.815Z,1.20
2019-02-19T03:11:49.111Z,1.60
2019-02-19T03:12:48.789Z,1.30
2019-02-19T03:13:48.773Z,1.20
2019-02-19T03:14:48.759Z,1.20
2019-02-19T03:15:48.764Z,1.40
2019-02-19T03:16:48.741Z,1.60
2019-02-19T03:17:48.730Z,1.50
2019-02-19T03:18:49.294Z,1.30
2019-02-19T03:19:48.705Z,1.30
2019-02-19T03:20:48.703Z,1.60
2019-02-19T03:21:48.684Z,1.30
2019-02-19T03:22:48.672Z,1.30
2019-02-19T03:23:48.667Z,1.30
2019-02-19T03:24:48.656Z,1.20
2019-02-19T03:25:48.805Z,1.00
2019-02-19T03:26:49.296Z,1.30
2019-02-19T03:27:48.619Z,1.30
2019-02-19T03:28:48.609Z,1.00
2019-02-19T03:29:48.614Z,1.00
2019-02-19T03:30:48.608Z,1.10
2019-02-19T03:31:48.574Z,1.10
2019-02-19T03:32:48.565Z,1.60
2019-02-19T03:33:48.567Z,1.30
2019-02-19T03:34:49.290Z,1.20
2019-02-19T03:35:48.547Z,1.30
2019-02-19T03:36:48.526Z,1.10
2019-02-19T03:37:48.527Z,1.00
2019-02-19T03:38:49.301Z,1.20
2019-02-19T03:39:48.505Z,1.10
2019-02-19T03:40:48.500Z,1.20
2019-02-19T03:41:49.295Z,1.20
2019-02-19T03:42:48.462Z,1.30
2019-02-19T03:43:48.472Z,1.30
2019-02-19T03:44:48.439Z,1.40
2019-02-19T03:45:48.429Z,1.50
2019-02-19T03:46:48.927Z,1.20
2019-02-19T03:47:48.410Z,1.20
2019-02-19T03:48:48.403Z,1.20
2019-02-19T03:49:49.312Z,1.40
2019-02-19T03:50:48.383Z,1.20
2019-02-19T03:51:48.373Z,1.40
2019-02-19T03:52:48.348Z,1.20
2019-02-19T03:53:48.331Z,0.90
2019-02-19T03:54:49.292Z,1.20
2019-02-19T03:55:48.316Z,1.20
2019-02-19T03:56:48.828Z,1.10
2019-02-19T03:57:48.306Z,1.00
2019-02-19T03:58:48.281Z,1.00
2019-02-19T03:59:48.797Z,0.90
2019-02-19T04:00:48.259Z,1.20
2019-02-19T04:01:48.265Z,1.30
2019-02-19T04:02:48.793Z,1.20
2019-02-19T04:03:48.794Z,1.00
2019-02-19T04:04:48.214Z,1.20
2019-02-19T04:05:48.207Z,1.00
2019-02-19T04:06:48.217Z,0.90
2019-02-19T04:07:48.809Z,1.30
2019-02-19T04:08:48.795Z,1.00
2019-02-19T04:09:48.811Z,1.10
2019-02-19T04:10:48.174Z,0.90
2019-02-19T04:11:48.151Z,1.10
2019-02-19T04:12:48.131Z,1.20
2019-02-19T04:13:48.120Z,1.20
2019-02-19T04:14:48.117Z,1.20
2019-02-19T04:15:48.096Z,1.20
2019-02-19T04:16:48.953Z,1.20
2019-02-19T04:17:48.075Z,0.90
2019-02-19T04:18:48.062Z,1.20
2019-02-19T04:19:48.053Z,1.30
2019-02-19T04:20:48.040Z,1.10
2019-02-19T04:21:48.078Z,1.00
2019-02-19T04:22:48.021Z,1.10
2019-02-19T04:23:48.009Z,1.10
2019-02-19T04:24:48.008Z,1.10
2019-02-19T04:25:48.793Z,1.10
2019-02-19T04:26:47.977Z,1.20
2019-02-19T04:27:48.312Z,1.10
2019-02-19T04:28:48.800Z,1.00
2019-02-19T04:29:47.940Z,1.30
2019-02-19T04:30:47.931Z,1.00
2019-02-19T04:31:48.794Z,1.20
2019-02-19T04:32:47.941Z,1.20
2019-02-19T04:33:47.902Z,1.10
2019-02-19T04:34:48.794Z,1.10
2019-02-19T04:35:47.880Z,1.30
2019-02-19T04:36:47.868Z,1.10
2019-02-19T04:37:47.871Z,1.00
2019-02-19T04:38:48.840Z,1.50
2019-02-19T04:39:47.836Z,1.30
2019-02-19T04:40:47.827Z,1.20
2019-02-19T04:41:48.800Z,1.10
2019-02-19T04:42:48.315Z,1.20
2019-02-19T04:43:48.295Z,0.80
2019-02-19T04:44:47.786Z,1.40
2019-02-19T04:45:47.769Z,0.90
2019-02-19T04:46:47.758Z,0.90
2019-02-19T04:47:47.758Z,1.20
2019-02-19T04:48:48.299Z,1.00
2019-02-19T04:49:47.744Z,1.10
2019-02-19T04:50:47.727Z,1.20
2019-02-19T04:51:47.707Z,1.00
2019-02-19T04:52:47.733Z,1.00
2019-02-19T04:53:47.689Z,1.10
2019-02-19T04:54:47.688Z,1.30
2019-02-19T04:55:47.664Z,1.10
2019-02-19T04:56:47.649Z,1.20
2019-02-19T04:57:47.671Z,1.20
2019-02-19T04:58:47.630Z,1.10
2019-02-19T04:59:48.298Z,1.00
2019-02-19T05:00:47.614Z,0.90
2019-02-19T05:01:47.595Z,1.00
2019-02-19T05:02:47.696Z,1.00
2019-02-19T05:03:47.572Z,1.00
2019-02-19T05:04:47.575Z,1.00
2019-02-19T05:05:47.555Z,1.20
2019-02-19T05:06:47.537Z,1.10
2019-02-19T05:07:47.540Z,0.90
2019-02-19T05:08:47.530Z,1.20
2019-02-19T05:09:47.525Z,1.30
2019-02-19T05:10:47.498Z,1.00
2019-02-19T05:11:47.485Z,0.90
2019-02-19T05:12:47.482Z,1.30
2019-02-19T05:13:47.478Z,0.90
2019-02-19T05:14:47.478Z,1.10
2019-02-19T05:15:47.443Z,1.20
2019-02-19T05:16:48.298Z,0.90
2019-02-19T05:17:48.312Z,1.20
2019-02-19T05:18:47.421Z,1.20
2019-02-19T05:19:47.418Z,1.30
2019-02-19T05:20:47.385Z,0.90
2019-02-19T05:21:47.384Z,1.10
2019-02-19T05:22:47.365Z,1.20
2019-02-19T05:23:47.365Z,1.10
2019-02-19T05:24:47.376Z,1.10
2019-02-19T05:25:48.316Z,1.00
2019-02-19T05:26:47.325Z,0.90
2019-02-19T05:27:47.312Z,1.00
2019-02-19T05:28:47.813Z,0.90
2019-02-19T05:29:47.308Z,1.00
2019-02-19T05:30:47.289Z,1.00
2019-02-19T05:31:47.284Z,1.00
2019-02-19T05:32:47.254Z,1.30
2019-02-19T05:33:47.260Z,0.90
2019-02-19T05:34:47.800Z,1.10
2019-02-19T05:35:47.814Z,1.00
2019-02-19T05:36:47.216Z,1.20
2019-02-19T05:37:47.203Z,1.10
2019-02-19T05:38:47.203Z,1.10
2019-02-19T05:39:47.802Z,1.10
2019-02-19T05:40:47.816Z,1.10
2019-02-19T05:41:47.159Z,1.10
2019-02-19T05:42:47.145Z,0.90
2019-02-19T05:43:47.153Z,1.10
2019-02-19T05:44:47.812Z,0.90
2019-02-19T05:45:47.123Z,1.10
2019-02-19T05:46:50.022Z,1.10
2019-02-19T05:47:47.093Z,0.90
2019-02-19T05:48:47.091Z,1.00
2019-02-19T05:49:47.079Z,0.70
2019-02-19T05:50:47.064Z,1.00
2019-02-19T05:51:47.799Z,1.20
2019-02-19T05:52:47.802Z,1.20
2019-02-19T05:53:47.031Z,1.30
2019-02-19T05:54:47.029Z,1.20
2019-02-19T05:55:47.009Z,1.30
2019-02-19T05:56:46.999Z,1.10
2019-02-19T05:57:47.804Z,1.00
2019-02-19T05:58:46.999Z,1.10
2019-02-19T05:59:46.972Z,1.20
2019-02-19T06:00:46.952Z,1.10
2019-02-19T06:01:46.941Z,0.90
2019-02-19T06:02:46.934Z,1.20
2019-02-19T06:03:46.916Z,1.00
2019-02-19T06:04:46.922Z,1.10
2019-02-19T06:05:46.897Z,1.20
2019-02-19T06:06:46.885Z,1.10
2019-02-19T06:07:47.796Z,0.80
2019-02-19T06:08:47.802Z,0.90
2019-02-19T06:09:46.872Z,1.00
2019-02-19T06:10:46.842Z,1.00
2019-02-19T06:11:46.832Z,1.00
2019-02-19T06:12:46.821Z,1.20
2019-02-19T06:13:46.812Z,1.10
2019-02-19T06:14:46.836Z,1.00
2019-02-19T06:15:46.804Z,1.00
2019-02-19T06:16:47.314Z,1.20
2019-02-19T06:17:47.303Z,1.30
2019-02-19T06:18:46.762Z,1.00
2019-02-19T06:19:46.753Z,1.20
2019-02-19T06:20:46.735Z,1.10
2019-02-19T06:21:47.311Z,1.40
2019-02-19T06:22:46.716Z,1.00
2019-02-19T06:23:46.703Z,1.10
2019-02-19T06:24:46.704Z,1.20
2019-02-19T06:25:46.679Z,0.90
2019-02-19T06:26:46.667Z,1.00
2019-02-19T06:27:46.664Z,1.00
2019-02-19T06:28:47.305Z,1.00
2019-02-19T06:29:47.322Z,1.00
2019-02-19T06:30:46.638Z,1.10
2019-02-19T06:31:46.644Z,1.10
2019-02-19T06:32:46.602Z,1.20
2019-02-19T06:33:46.596Z,1.30
2019-02-19T06:34:47.303Z,0.90
2019-02-19T06:35:46.589Z,1.30
2019-02-19T06:36:46.576Z,1.10
2019-02-19T06:37:46.552Z,1.00
2019-02-19T06:38:47.303Z,1.20
2019-02-19T06:39:47.305Z,1.30
2019-02-19T06:40:46.526Z,0.80
2019-02-19T06:41:46.517Z,1.00
2019-02-19T06:42:47.319Z,1.20
2019-02-19T06:43:46.481Z,1.00
2019-02-19T06:44:46.483Z,1.00
2019-02-19T06:45:46.813Z,1.00
2019-02-19T06:46:46.464Z,1.10
2019-02-19T06:47:46.436Z,1.20
2019-02-19T06:48:46.435Z,0.90
2019-02-19T06:49:47.303Z,1.00
2019-02-19T06:50:46.423Z,1.10
2019-02-19T06:51:46.413Z,1.00
2019-02-19T06:52:46.386Z,0.90
2019-02-19T06:53:46.375Z,1.10
2019-02-19T06:54:47.338Z,1.20
2019-02-19T06:55:46.362Z,1.10
2019-02-19T06:56:46.379Z,1.20
2019-02-19T06:57:46.328Z,1.10
2019-02-19T06:58:46.319Z,1.30
2019-02-19T06:59:46.311Z,1.10
2019-02-19T07:00:46.315Z,1.30
2019-02-19T07:01:46.290Z,1.00
2019-02-19T07:02:46.276Z,1.10
2019-02-19T07:03:46.264Z,1.10
2019-02-19T07:04:46.254Z,1.10
2019-02-19T07:05:46.258Z,1.10
2019-02-19T07:06:46.810Z,1.10
2019-02-19T07:07:46.221Z,1.30
2019-02-19T07:08:46.209Z,1.00
2019-02-19T07:09:46.204Z,1.30
2019-02-19T07:10:46.202Z,1.00
2019-02-19T07:11:46.817Z,1.20
2019-02-19T07:12:46.177Z,1.00
2019-02-19T07:13:46.155Z,0.80
2019-02-19T07:14:46.145Z,1.40
2019-02-19T07:15:46.143Z,1.10
2019-02-19T07:16:46.817Z,1.30
2019-02-19T07:17:46.808Z,1.00
2019-02-19T07:18:46.099Z,1.10
2019-02-19T07:19:46.093Z,0.90
2019-02-19T07:20:46.814Z,1.10
2019-02-19T07:21:46.081Z,1.10
2019-02-19T07:22:46.063Z,0.90
2019-02-19T07:23:46.071Z,1.30
2019-02-19T07:24:46.081Z,1.70
2019-02-19T07:25:46.813Z,2.00
2019-02-19T07:26:46.029Z,2.20
2019-02-19T07:27:46.810Z,2.50
2019-02-19T07:28:46.007Z,2.40
2019-02-19T07:29:45.980Z,2.30
2019-02-19T07:30:45.971Z,2.80
2019-02-19T07:31:45.971Z,2.90
2019-02-19T07:32:46.825Z,3.00
2019-02-19T07:33:45.941Z,3.40
2019-02-19T07:34:45.946Z,3.30
2019-02-19T07:35:45.921Z,4.10
2019-02-19T07:36:45.928Z,3.90
2019-02-19T07:37:45.904Z,3.60
2019-02-19T07:38:45.884Z,3.40
2019-02-19T07:39:45.871Z,3.90
2019-02-19T07:40:45.877Z,4.30
2019-02-19T07:41:45.891Z,3.90
2019-02-19T07:42:45.864Z,3.70
2019-02-19T07:43:45.833Z,4.10
2019-02-19T07:44:45.817Z,4.10
2019-02-19T07:45:45.805Z,3.80
2019-02-19T07:46:45.887Z,3.70
2019-02-19T07:47:45.802Z,4.50
2019-02-19T07:48:46.310Z,4.00
2019-02-19T07:49:46.308Z,3.50
2019-02-19T07:50:45.753Z,4.00
2019-02-19T07:51:45.752Z,4.00
2019-02-19T07:52:45.751Z,4.20
2019-02-19T07:53:46.307Z,3.90
2019-02-19T07:54:46.308Z,4.00
2019-02-19T07:55:45.700Z,3.90
2019-02-19T07:56:45.828Z,4.30
2019-02-19T07:57:45.700Z,3.80
2019-02-19T07:58:45.666Z,3.90
2019-02-19T07:59:45.655Z,4.10
2019-02-19T08:00:45.643Z,4.10
2019-02-19T08:01:45.652Z,4.20
2019-02-19T08:02:45.621Z,4.00
2019-02-19T08:03:46.307Z,3.80
2019-02-19T08:04:45.600Z,4.20
2019-02-19T08:05:45.591Z,4.10
2019-02-19T08:06:45.836Z,4.20
2019-02-19T08:07:45.567Z,4.40
2019-02-19T08:08:46.310Z,4.00
2019-02-19T08:09:45.561Z,3.70
2019-02-19T08:10:45.534Z,4.10
2019-02-19T08:11:45.538Z,3.70
2019-02-19T08:12:45.511Z,3.30
2019-02-19T08:13:45.501Z,4.20
2019-02-19T08:14:45.492Z,4.20
2019-02-19T08:15:45.480Z,4.10
2019-02-19T08:16:45.480Z,4.80
2019-02-19T08:17:45.463Z,4.60
2019-02-19T08:18:46.369Z,4.10
2019-02-19T08:19:46.309Z,4.30
2019-02-19T08:20:46.318Z,4.30
2019-02-19T08:21:45.447Z,4.50
2019-02-19T08:22:45.402Z,4.20
2019-02-19T08:23:45.401Z,3.90
2019-02-19T08:24:45.380Z,4.60
2019-02-19T08:25:45.373Z,3.60
2019-02-19T08:26:46.309Z,4.30
2019-02-19T08:27:45.360Z,4.60
2019-02-19T08:28:45.339Z,4.30
2019-02-19T08:29:45.330Z,4.40
2019-02-19T08:30:45.363Z,4.60
2019-02-19T08:31:45.327Z,4.60
2019-02-19T08:32:45.329Z,4.70
2019-02-19T08:33:45.287Z,4.70
2019-02-19T08:34:45.272Z,4.40
2019-02-19T08:35:45.811Z,5.40
2019-02-19T08:36:45.252Z,5.20
2019-02-19T08:37:45.254Z,5.70
2019-02-19T08:38:45.256Z,5.60
2019-02-19T08:39:45.225Z,5.30
2019-02-19T08:40:45.206Z,5.50
2019-02-19T08:41:46.578Z,5.70
2019-02-19T08:42:45.334Z,5.30
2019-02-19T08:43:45.173Z,5.60
2019-02-19T08:44:45.198Z,5.90
2019-02-19T08:45:45.160Z,5.70
2019-02-19T08:46:45.144Z,5.70
2019-02-19T08:47:45.145Z,5.80
2019-02-19T08:48:45.119Z,4.90
2019-02-19T08:49:45.121Z,6.20
2019-02-19T08:50:45.811Z,5.00
2019-02-19T08:51:45.089Z,5.30
2019-02-19T08:52:45.087Z,5.80
2019-02-19T08:53:45.069Z,5.30
2019-02-19T08:54:45.832Z,5.30
2019-02-19T08:55:45.813Z,4.60
2019-02-19T08:56:45.824Z,5.70
2019-02-19T08:57:45.029Z,5.10
2019-02-19T08:58:45.006Z,5.10
2019-02-19T08:59:45.021Z,5.40
2019-02-19T09:00:45.039Z,6.00
2019-02-19T09:01:44.976Z,5.20
2019-02-19T09:02:44.982Z,5.70
2019-02-19T09:03:45.161Z,5.40
2019-02-19T09:04:44.976Z,5.80
2019-02-19T09:05:44.932Z,5.80
2019-02-19T09:06:44.928Z,5.00
2019-02-19T09:07:45.363Z,4.70
2019-02-19T09:08:44.896Z,5.10
2019-02-19T09:09:44.905Z,5.10
2019-02-19T09:10:44.878Z,5.30
2019-02-19T09:11:44.866Z,5.90
2019-02-19T09:12:44.899Z,5.50
2019-02-19T09:13:44.846Z,4.80
2019-02-19T09:14:44.845Z,5.50
2019-02-19T09:15:44.822Z,5.10
2019-02-19T09:16:45.316Z,5.10
2019-02-19T09:17:51.735Z,4.60
2019-02-19T09:18:44.797Z,5.10
2019-02-19T09:19:44.780Z,5.00
2019-02-19T09:20:44.769Z,4.50
2019-02-19T09:21:44.769Z,4.60
2019-02-19T09:22:44.746Z,4.50
2019-02-19T09:23:44.755Z,4.50
2019-02-19T09:24:45.331Z,5.30
2019-02-19T09:25:44.717Z,5.10
2019-02-19T09:26:45.316Z,4.80
2019-02-19T09:27:44.692Z,4.30
2019-02-19T09:28:44.838Z,4.50
2019-02-19T09:29:44.678Z,4.70
2019-02-19T09:30:45.314Z,4.20
2019-02-19T09:31:44.645Z,4.10
2019-02-19T09:32:44.635Z,4.40
2019-02-19T09:33:44.662Z,4.00
2019-02-19T09:34:44.612Z,3.60
2019-02-19T09:35:44.602Z,3.30
2019-02-19T09:36:44.592Z,4.00
2019-02-19T09:37:44.580Z,4.00
2019-02-19T09:38:44.835Z,4.10
2019-02-19T09:39:45.314Z,4.00
2019-02-19T09:40:44.547Z,3.60
2019-02-19T09:41:44.531Z,3.80
2019-02-19T09:42:45.313Z,3.90
2019-02-19T09:43:44.517Z,3.90
2019-02-19T09:44:44.506Z,3.40
2019-02-19T09:45:45.313Z,3.30
2019-02-19T09:46:44.495Z,3.40
2019-02-19T09:47:44.520Z,3.40
2019-02-19T09:48:44.484Z,3.50
2019-02-19T09:49:45.343Z,3.50
2019-02-19T09:50:44.439Z,2.80
2019-02-19T09:51:45.557Z,2.80
2019-02-19T09:52:44.421Z,3.30
2019-02-19T09:53:44.413Z,3.50
2019-02-19T09:54:44.406Z,3.20
2019-02-19T09:55:44.385Z,3.40
2019-02-19T09:56:44.386Z,3.20
2019-02-19T09:57:45.317Z,3.50
2019-02-19T09:58:44.365Z,3.90
2019-02-19T09:59:45.326Z,3.10
2019-02-19T10:00:45.315Z,3.20
2019-02-19T10:01:45.323Z,3.10
2019-02-19T10:02:44.316Z,2.90
2019-02-19T10:03:44.327Z,3.40
2019-02-19T10:04:44.843Z,2.90
2019-02-19T10:05:44.304Z,3.00
2019-02-19T10:06:44.817Z,3.50
2019-02-19T10:07:44.255Z,3.40
2019-02-19T10:08:44.288Z,3.20
2019-02-19T10:09:44.238Z,3.00
2019-02-19T10:10:44.221Z,3.10
2019-02-19T10:11:44.211Z,2.80
2019-02-19T10:12:44.200Z,3.30
2019-02-19T10:13:44.820Z,3.20
2019-02-19T10:14:44.200Z,2.90
2019-02-19T10:15:44.167Z,2.90
2019-02-19T10:16:44.157Z,3.10
2019-02-19T10:17:44.175Z,3.70
2019-02-19T10:18:44.819Z,2.50
2019-02-19T10:19:44.130Z,3.30
2019-02-19T10:20:44.112Z,3.30
2019-02-19T10:21:45.718Z,2.80
2019-02-19T10:22:44.093Z,3.00
2019-02-19T10:23:44.079Z,3.20
2019-02-19T10:24:44.345Z,2.70
2019-02-19T10:25:44.699Z,2.90
2019-02-19T10:26:44.817Z,2.70
2019-02-19T10:27:44.036Z,3.30
2019-02-19T10:28:44.026Z,2.90
2019-02-19T10:29:44.849Z,3.10
2019-02-19T10:30:44.156Z,3.30
2019-02-19T10:31:44.850Z,3.10
2019-02-19T10:32:43.986Z,2.90
2019-02-19T10:33:43.969Z,2.30
2019-02-19T10:34:44.326Z,2.70
2019-02-19T10:35:43.965Z,3.20
2019-02-19T10:36:44.815Z,2.60
2019-02-19T10:37:43.927Z,2.50
2019-02-19T10:38:44.816Z,2.50
2019-02-19T10:39:44.348Z,2.60
2019-02-19T10:40:43.896Z,3.20
2019-02-19T10:41:44.816Z,2.30
2019-02-19T10:42:44.827Z,2.60
2019-02-19T10:43:43.863Z,2.90
2019-02-19T10:44:43.873Z,2.80
2019-02-19T10:45:43.840Z,2.60
2019-02-19T10:46:43.844Z,2.70
2019-02-19T10:47:43.826Z,2.60
2019-02-19T10:48:44.321Z,2.60
2019-02-19T10:49:43.826Z,3.20
2019-02-19T10:50:43.816Z,3.10
2019-02-19T10:51:43.780Z,2.40
2019-02-19T10:52:43.765Z,2.50
2019-02-19T10:53:44.364Z,2.10
2019-02-19T10:54:44.341Z,2.30
2019-02-19T10:55:43.845Z,2.50
2019-02-19T10:56:43.730Z,2.30
2019-02-19T10:57:43.712Z,2.10
2019-02-19T10:58:44.338Z,2.30
2019-02-19T10:59:43.709Z,2.50
2019-02-19T11:00:43.707Z,2.60
2019-02-19T11:01:43.692Z,2.20
2019-02-19T11:02:43.656Z,2.60
2019-02-19T11:03:43.653Z,2.10
2019-02-19T11:04:43.634Z,2.00
2019-02-19T11:05:43.838Z,2.10
2019-02-19T11:06:43.612Z,2.20
2019-02-19T11:07:44.323Z,2.60
2019-02-19T11:08:43.591Z,2.20
2019-02-19T11:09:43.583Z,3.40
2019-02-19T11:10:43.599Z,2.90
2019-02-19T11:11:43.564Z,2.70
2019-02-19T11:12:43.547Z,3.40
2019-02-19T11:13:43.535Z,2.90
2019-02-19T11:14:43.524Z,2.80
2019-02-19T11:15:43.539Z,3.20
2019-02-19T11:16:43.505Z,3.10
2019-02-19T11:17:43.496Z,3.10
2019-02-19T11:18:44.334Z,3.30
2019-02-19T11:19:43.476Z,3.30
2019-02-19T11:20:43.487Z,3.10
2019-02-19T11:21:43.450Z,3.50
2019-02-19T11:22:44.322Z,3.80
2019-02-19T11:23:43.426Z,2.80
2019-02-19T11:24:44.323Z,3.30
2019-02-19T11:25:43.855Z,3.10
2019-02-19T11:26:43.396Z,4.00
2019-02-19T11:27:44.325Z,2.60
2019-02-19T11:28:44.341Z,3.00
2019-02-19T11:29:43.365Z,3.00
2019-02-19T11:30:43.373Z,3.30
2019-02-19T11:31:44.326Z,2.50
2019-02-19T11:32:43.331Z,3.20
2019-02-19T11:33:43.823Z,3.10
2019-02-19T11:34:43.819Z,3.20
2019-02-19T11:35:43.317Z,2.90
2019-02-19T11:36:43.299Z,3.00
2019-02-19T11:37:43.279Z,2.70
2019-02-19T11:38:43.820Z,2.70
2019-02-19T11:39:43.264Z,2.30
2019-02-19T11:40:43.271Z,2.70
2019-02-19T11:41:43.236Z,2.60
2019-02-19T11:42:43.225Z,2.90
2019-02-19T11:43:43.211Z,2.40
2019-02-19T11:44:43.200Z,2.20
2019-02-19T11:45:43.198Z,2.60
2019-02-19T11:46:43.179Z,2.40
2019-02-19T11:47:43.168Z,2.60
2019-02-19T11:48:43.158Z,2.50
2019-02-19T11:49:43.151Z,2.20
2019-02-19T11:50:43.149Z,2.60
2019-02-19T11:51:43.129Z,2.10
2019-02-19T11:52:43.113Z,2.10
2019-02-19T11:53:43.101Z,2.10
2019-02-19T11:54:43.091Z,2.00
2019-02-19T11:55:43.097Z,2.30
2019-02-19T11:56:43.069Z,2.30
2019-02-19T11:57:43.822Z,2.30
2019-02-19T11:58:43.059Z,1.90
2019-02-19T11:59:43.034Z,2.10
2019-02-19T12:00:43.035Z,2.10
2019-02-19T12:01:43.015Z,1.80
2019-02-19T12:02:43.009Z,2.20
2019-02-19T12:03:42.995Z,2.50
2019-02-19T12:04:42.989Z,2.30
2019-02-19T12:05:43.002Z,2.00
2019-02-19T12:06:43.856Z,2.00
2019-02-19T12:07:42.948Z,2.30
2019-02-19T12:08:42.939Z,1.80
2019-02-19T12:09:42.925Z,2.10
2019-02-19T12:10:43.849Z,2.20
2019-02-19T12:11:42.913Z,1.90
2019-02-19T12:12:42.896Z,1.90
2019-02-19T12:13:42.883Z,2.20
2019-02-19T12:14:42.876Z,2.00
2019-02-19T12:15:43.826Z,1.70
2019-02-19T12:16:43.337Z,1.90
2019-02-19T12:17:42.874Z,1.80
2019-02-19T12:18:46.291Z,2.10
2019-02-19T12:19:42.865Z,2.00
2019-02-19T12:20:42.823Z,2.10
2019-02-19T12:21:42.815Z,1.80
2019-02-19T12:22:42.827Z,2.60
2019-02-19T12:23:42.775Z,1.60
2019-02-19T12:24:42.767Z,1.90
2019-02-19T12:25:43.346Z,1.60
2019-02-19T12:26:42.766Z,1.60
2019-02-19T12:27:42.742Z,2.00
2019-02-19T12:28:42.734Z,1.70
2019-02-19T12:29:42.710Z,1.70
2019-02-19T12:30:43.347Z,2.00
2019-02-19T12:31:42.700Z,1.80
2019-02-19T12:32:42.695Z,1.60
2019-02-19T12:33:43.325Z,2.00
2019-02-19T12:34:42.667Z,2.20
2019-02-19T12:35:42.678Z,2.10
2019-02-19T12:36:42.647Z,1.70
2019-02-19T12:37:43.327Z,1.70
2019-02-19T12:38:43.333Z,1.60
2019-02-19T12:39:42.601Z,1.90
2019-02-19T12:40:42.594Z,2.50
2019-02-19T12:41:42.606Z,1.50
2019-02-19T12:42:42.570Z,1.70
2019-02-19T12:43:42.569Z,1.70
2019-02-19T12:44:42.553Z,1.80
2019-02-19T12:45:42.536Z,1.90
2019-02-19T12:46:42.543Z,2.00
2019-02-19T12:47:43.329Z,2.00
2019-02-19T12:48:42.505Z,1.70
2019-02-19T12:49:42.490Z,2.00
2019-02-19T12:50:43.329Z,1.80
2019-02-19T12:51:42.850Z,1.90
2019-02-19T12:52:43.350Z,2.10
2019-02-19T12:53:43.424Z,1.90
2019-02-19T12:54:42.447Z,2.00
2019-02-19T12:55:43.658Z,2.10
2019-02-19T12:56:42.437Z,1.80
2019-02-19T12:57:43.325Z,1.80
2019-02-19T12:58:42.393Z,2.10
2019-02-19T12:59:43.326Z,2.40
2019-02-19T13:00:42.376Z,1.90
2019-02-19T13:01:42.372Z,1.90
2019-02-19T13:02:44.046Z,2.10
2019-02-19T13:03:43.328Z,2.20
2019-02-19T13:04:42.330Z,1.70
2019-02-19T13:05:42.317Z,1.80
2019-02-19T13:06:42.330Z,1.50
2019-02-19T13:07:42.322Z,1.70
2019-02-19T13:08:42.297Z,1.80
2019-02-19T13:09:42.841Z,1.80
2019-02-19T13:10:42.276Z,1.50
2019-02-19T13:11:42.256Z,1.90
2019-02-19T13:12:42.259Z,1.70
2019-02-19T13:13:42.834Z,2.00
2019-02-19T13:14:42.227Z,2.40
2019-02-19T13:15:42.215Z,1.60
2019-02-19T13:16:42.227Z,1.70
2019-02-19T13:17:42.204Z,1.80
2019-02-19T13:18:42.180Z,2.10